createdAt,value
2023-03-11T00:00:46.987Z,1.73
2023-03-11T00:03:15.836Z,1.90
2023-03-11T00:05:45.555Z,1.42
2023-03-11T00:08:16.491Z,1.30
2023-03-11T00:10:45.495Z,1.90
2023-03-11T00:13:14.441Z,1.88
2023-03-11T00:15:42.713Z,1.60
2023-03-11T00:18:09.613Z,1.60
2023-03-11T00:20:39.589Z,1.63
2023-03-11T00:23:08.226Z,1.92
2023-03-11T00:25:37.196Z,1.50
2023-03-11T00:28:07.211Z,1.98
2023-03-11T00:30:34.760Z,1.48
2023-03-11T00:33:01.846Z,1.83
2023-03-11T00:35:31.456Z,1.83
2023-03-11T00:38:01.407Z,2.17
2023-03-11T00:40:30.633Z,2.42
2023-03-11T00:42:58.455Z,2.00
2023-03-11T00:45:26.442Z,2.13
2023-03-11T00:47:53.988Z,1.60
2023-03-11T00:50:23.937Z,2.17
2023-03-11T00:52:51.789Z,2.25
2023-03-11T00:55:28.920Z,1.90
2023-03-11T00:58:00.137Z,1.50
2023-03-11T01:00:31.187Z,2.60
2023-03-11T01:02:59.308Z,2.42
2023-03-11T01:05:29.570Z,2.55
2023-03-11T01:07:56.923Z,1.70
2023-03-11T01:10:24.020Z,2.03
2023-03-11T01:12:51.654Z,2.25
2023-03-11T01:15:33.264Z,2.17
2023-03-11T01:18:00.708Z,2.33
2023-03-11T01:20:27.903Z,2.35
2023-03-11T01:22:54.973Z,2.00
2023-03-11T01:25:23.846Z,2.05
2023-03-11T01:27:51.269Z,1.70
2023-03-11T01:30:21.463Z,1.88
2023-03-11T01:32:48.741Z,2.10
2023-03-11T01:35:18.415Z,1.00
2023-03-11T01:37:47.229Z,1.33
2023-03-11T01:40:31.208Z,1.30
2023-03-11T01:43:01.770Z,1.40
2023-03-11T01:46:02.429Z,1.27
2023-03-11T01:48:30.784Z,1.92
2023-03-11T01:50:58.659Z,1.63
2023-03-11T01:53:25.742Z,1.10
2023-03-11T01:55:52.984Z,1.13
2023-03-11T01:58:31.209Z,1.67
2023-03-11T02:01:00.761Z,1.33
2023-03-11T02:03:32.210Z,1.27
2023-03-11T02:06:02.832Z,1.33
2023-03-11T02:08:34.057Z,1.10
2023-03-11T02:11:05.649Z,1.52
2023-03-11T02:13:35.260Z,1.63
2023-03-11T02:16:03.384Z,1.25
2023-03-11T02:18:30.645Z,1.25
2023-03-11T02:21:21.750Z,1.15
2023-03-11T02:24:20.038Z,1.55
2023-03-11T02:27:05.624Z,1.35
2023-03-11T02:29:34.250Z,1.77
2023-03-11T02:32:06.180Z,1.73
2023-03-11T02:34:36.460Z,1.70
2023-03-11T02:37:11.956Z,1.25
2023-03-11T02:39:45.289Z,1.40
2023-03-11T02:42:28.633Z,1.73
2023-03-11T02:45:10.673Z,1.48
2023-03-11T02:47:39.929Z,2.00
2023-03-11T02:50:11.954Z,1.88
2023-03-11T02:52:39.247Z,1.80
2023-03-11T02:55:06.990Z,1.52
2023-03-11T02:57:34.279Z,1.50
2023-03-11T03:00:08.278Z,1.35
2023-03-11T03:02:35.287Z,1.15
2023-03-11T03:05:03.215Z,1.55
2023-03-11T03:07:30.126Z,1.40
2023-03-11T03:09:57.084Z,1.52
2023-03-11T03:12:24.199Z,1.30
2023-03-11T03:14:51.066Z,1.70
2023-03-11T03:17:18.570Z,1.52
2023-03-11T03:19:47.138Z,2.20
2023-03-11T03:22:14.230Z,1.60
2023-03-11T03:24:41.821Z,1.60
2023-03-11T03:27:08.861Z,2.13
2023-03-11T03:29:35.856Z,2.08
2023-03-11T03:32:02.904Z,2.70
2023-03-11T03:34:29.750Z,2.00
2023-03-11T03:36:56.765Z,2.25
2023-03-11T03:39:24.199Z,1.73
2023-03-11T03:41:52.373Z,1.75
2023-03-11T03:44:21.146Z,1.60
2023-03-11T03:46:48.320Z,1.88
2023-03-11T03:49:15.174Z,1.85
2023-03-11T03:51:42.857Z,2.17
2023-03-11T03:54:16.127Z,1.65
2023-03-11T03:56:43.630Z,1.73
2023-03-11T03:59:10.549Z,1.50
2023-03-11T04:01:41.901Z,1.85
2023-03-11T04:04:08.843Z,1.52
2023-03-11T04:06:35.773Z,1.98
2023-03-11T04:09:05.453Z,1.50
2023-03-11T04:11:34.942Z,1.92
2023-03-11T04:14:04.142Z,1.60
2023-03-11T04:16:33.540Z,1.77
2023-03-11T04:19:05.854Z,1.65
2023-03-11T04:21:33.850Z,1.60
2023-03-11T04:24:01.589Z,1.90
2023-03-11T04:26:33.003Z,1.77
2023-03-11T04:29:00.262Z,1.63
2023-03-11T04:31:29.694Z,2.05
2023-03-11T04:33:59.052Z,1.73
2023-03-11T04:36:26.220Z,1.98
2023-03-11T04:38:53.265Z,1.70
2023-03-11T04:41:21.634Z,1.33
2023-03-11T04:43:49.101Z,1.40
2023-03-11T04:46:16.577Z,1.10
2023-03-11T04:48:43.557Z,1.70
2023-03-11T04:51:10.669Z,1.48
2023-03-11T04:53:37.642Z,1.55
2023-03-11T04:56:05.845Z,1.42
2023-03-11T04:58:33.615Z,1.60
2023-03-11T05:01:00.807Z,1.95
2023-03-11T05:03:28.068Z,2.13
2023-03-11T05:05:56.823Z,2.50
2023-03-11T05:08:24.623Z,1.77
2023-03-11T05:10:53.021Z,1.95
2023-03-11T05:13:21.950Z,2.20
2023-03-11T05:15:50.977Z,1.92
2023-03-11T05:18:17.955Z,2.58
2023-03-11T05:20:45.655Z,2.25
2023-03-11T05:23:13.833Z,2.78
2023-03-11T05:25:41.287Z,3.40
2023-03-11T05:28:09.018Z,3.08
2023-03-11T05:30:41.304Z,3.33
2023-03-11T05:33:08.954Z,3.30
2023-03-11T05:35:36.475Z,3.20
2023-03-11T05:38:03.922Z,3.53
2023-03-11T05:40:31.111Z,3.22
2023-03-11T05:42:57.942Z,3.50
2023-03-11T05:45:26.658Z,3.28
2023-03-11T05:47:55.695Z,3.38
2023-03-11T05:50:22.569Z,3.30
2023-03-11T05:52:50.841Z,3.35
2023-03-11T05:55:18.768Z,3.20
2023-03-11T05:57:46.829Z,3.80
2023-03-11T06:00:14.084Z,3.60
2023-03-11T06:02:42.350Z,3.47
2023-03-11T06:05:13.874Z,3.63
2023-03-11T06:07:42.812Z,3.53
2023-03-11T06:10:10.354Z,4.65
2023-03-11T06:12:38.703Z,3.60
2023-03-11T06:15:23.127Z,3.97
2023-03-11T06:17:50.265Z,3.63
2023-03-11T06:20:18.027Z,3.72
2023-03-11T06:22:48.221Z,4.55
2023-03-11T06:25:15.462Z,3.80
2023-03-11T06:27:44.683Z,4.20
2023-03-11T06:30:12.792Z,3.65
2023-03-11T06:32:47.561Z,4.30
2023-03-11T06:35:14.973Z,4.60
2023-03-11T06:37:41.947Z,4.65
2023-03-11T06:40:11.041Z,5.07
2023-03-11T06:42:38.237Z,5.68
2023-03-11T06:45:07.863Z,5.28
2023-03-11T06:47:34.887Z,4.57
2023-03-11T06:50:06.741Z,5.20
2023-03-11T06:52:34.168Z,4.00
2023-03-11T06:55:01.345Z,3.85
2023-03-11T06:57:30.898Z,4.63
2023-03-11T07:00:00.591Z,4.53
2023-03-11T07:02:28.467Z,4.57
2023-03-11T07:04:55.545Z,3.85
2023-03-11T07:07:22.429Z,4.80
2023-03-11T07:09:49.559Z,4.68
2023-03-11T07:12:17.798Z,4.40
2023-03-11T07:14:44.740Z,4.78
2023-03-11T07:17:11.851Z,5.05
2023-03-11T07:19:45.398Z,5.30
2023-03-11T07:22:12.322Z,4.50
2023-03-11T07:24:39.131Z,4.38
2023-03-11T07:27:06.178Z,3.72
2023-03-11T07:29:32.992Z,4.55
2023-03-11T07:31:59.940Z,3.92
2023-03-11T07:34:26.821Z,3.70
2023-03-11T07:36:53.729Z,3.75
2023-03-11T07:39:20.618Z,3.83
2023-03-11T07:41:47.787Z,3.55
2023-03-11T07:44:15.934Z,3.25
2023-03-11T07:46:43.823Z,2.92
2023-03-11T07:49:11.300Z,2.95
2023-03-11T07:51:40.992Z,3.53
2023-03-11T07:54:07.820Z,3.67
2023-03-11T07:56:35.406Z,2.97
2023-03-11T07:59:04.051Z,2.95
2023-03-11T08:01:36.098Z,3.38
2023-03-11T08:04:05.921Z,2.92
2023-03-11T08:06:34.396Z,3.70
2023-03-11T08:09:03.974Z,4.20
2023-03-11T08:11:31.742Z,3.92
2023-03-11T08:13:59.246Z,3.55
2023-03-11T08:16:27.128Z,3.33
2023-03-11T08:18:54.661Z,2.50
2023-03-11T08:21:24.060Z,2.60
2023-03-11T08:23:52.128Z,2.53
2023-03-11T08:26:21.965Z,2.63
2023-03-11T08:28:50.036Z,2.35
2023-03-11T08:31:26.092Z,2.72
2023-03-11T08:33:56.969Z,2.25
2023-03-11T08:36:24.269Z,2.90
2023-03-11T08:38:51.208Z,2.58
2023-03-11T08:41:18.764Z,2.70
2023-03-11T08:43:46.135Z,2.47
2023-03-11T08:46:21.061Z,2.17
2023-03-11T08:48:48.045Z,2.42
2023-03-11T08:51:15.040Z,2.60
2023-03-11T08:53:42.180Z,1.90
2023-03-11T08:56:09.577Z,2.78
2023-03-11T08:58:36.626Z,2.40
2023-03-11T09:01:04.910Z,2.67
2023-03-11T09:03:38.268Z,2.83
2023-03-11T09:06:08.389Z,2.63
2023-03-11T09:08:35.831Z,2.63
2023-03-11T09:11:02.855Z,2.17
2023-03-11T09:13:29.895Z,2.03
2023-03-11T09:15:56.766Z,2.50
2023-03-11T09:18:23.910Z,2.20
2023-03-11T09:20:50.975Z,2.70
2023-03-11T09:23:18.975Z,1.98
2023-03-11T09:25:45.842Z,2.47
2023-03-11T09:28:12.788Z,2.13
2023-03-11T09:30:39.655Z,1.73
2023-03-11T09:33:06.571Z,1.55
2023-03-11T09:35:33.704Z,2.03
2023-03-11T09:38:00.888Z,1.88
2023-03-11T09:40:39.740Z,2.50
2023-03-11T09:43:28.188Z,1.77
2023-03-11T09:46:29.464Z,7.45
2023-03-11T09:49:05.366Z,5.60
2023-03-11T09:51:37.997Z,2.13
2023-03-11T09:54:10.032Z,2.72
2023-03-11T09:56:39.100Z,2.13
2023-03-11T09:59:19.547Z,1.65
2023-03-11T10:01:49.123Z,1.73
2023-03-11T10:04:28.339Z,2.03
2023-03-11T10:06:56.987Z,1.75
2023-03-11T10:09:41.168Z,1.75
2023-03-11T10:12:28.352Z,1.83
2023-03-11T10:15:11.958Z,2.60
2023-03-11T10:18:03.119Z,1.45
2023-03-11T10:20:52.918Z,2.03
2023-03-11T10:23:37.145Z,2.38
2023-03-11T10:26:13.797Z,2.00
2023-03-11T10:29:11.491Z,2.80
2023-03-11T10:31:50.647Z,1.70
2023-03-11T10:34:41.080Z,2.65
2023-03-11T10:37:24.029Z,2.25
2023-03-11T10:39:51.791Z,1.67
2023-03-11T10:42:27.683Z,2.20
2023-03-11T10:44:54.829Z,1.58
2023-03-11T10:47:24.703Z,1.60
2023-03-11T10:49:52.638Z,1.80
2023-03-11T10:52:20.040Z,1.52
2023-03-11T10:54:58.712Z,1.65
2023-03-11T10:57:30.025Z,1.50
2023-03-11T10:59:58.911Z,2.20
2023-03-11T11:02:32.644Z,1.95
2023-03-11T11:05:17.974Z,2.33
2023-03-11T11:07:47.014Z,1.73
2023-03-11T11:10:19.132Z,1.50
2023-03-11T11:12:56.722Z,2.03
2023-03-11T11:15:38.203Z,2.17
2023-03-11T11:18:25.771Z,2.33
2023-03-11T11:21:15.949Z,1.73
2023-03-11T11:23:48.646Z,2.00
2023-03-11T11:26:22.241Z,1.85
2023-03-11T11:29:15.283Z,1.88
2023-03-11T11:31:45.001Z,1.40
2023-03-11T11:34:31.720Z,1.63
2023-03-11T11:37:01.470Z,1.30
2023-03-11T11:39:33.216Z,2.40
2023-03-11T11:42:01.740Z,1.80
2023-03-11T11:44:33.971Z,1.80
2023-03-11T11:47:15.828Z,1.85
2023-03-11T11:49:54.863Z,1.80
2023-03-11T11:52:25.862Z,1.48
2023-03-11T11:55:29.043Z,1.58
2023-03-11T11:57:56.682Z,1.42
2023-03-11T12:00:54.487Z,1.80
2023-03-11T12:03:53.601Z,1.52
2023-03-11T12:06:42.175Z,1.45
2023-03-11T12:09:38.772Z,1.60
2023-03-11T12:12:20.671Z,1.75
2023-03-11T12:14:58.144Z,2.15
2023-03-11T12:17:28.090Z,1.35
2023-03-11T12:20:08.780Z,1.65
2023-03-11T12:22:38.747Z,1.88
2023-03-11T12:25:23.125Z,1.63
2023-03-11T12:28:01.485Z,1.70
2023-03-11T12:30:43.918Z,1.27
2023-03-11T12:33:23.127Z,1.90
2023-03-11T12:35:55.981Z,1.58
2023-03-11T12:38:33.506Z,1.40
2023-03-11T12:41:06.432Z,1.27
2023-03-11T12:43:36.273Z,1.90
2023-03-11T12:46:05.113Z,1.83
2023-03-11T12:48:46.661Z,1.67
2023-03-11T12:51:34.622Z,1.77
2023-03-11T12:54:31.366Z,1.88
2023-03-11T12:57:02.886Z,1.90
2023-03-11T12:59:48.365Z,2.10
2023-03-11T13:02:48.442Z,1.90
2023-03-11T13:05:42.130Z,1.77
2023-03-11T13:08:21.066Z,1.73
2023-03-11T13:10:50.062Z,2.25
2023-03-11T13:13:23.032Z,1.95
2023-03-11T13:15:50.747Z,1.92
2023-03-11T13:18:38.110Z,1.60
2023-03-11T13:21:25.363Z,2.10
2023-03-11T13:23:52.293Z,1.73
2023-03-11T13:26:43.746Z,1.83
2023-03-11T13:29:22.944Z,2.05
2023-03-11T13:32:17.216Z,3.35
2023-03-11T13:35:19.154Z,2.65
2023-03-11T13:37:50.620Z,2.25
2023-03-11T13:40:33.205Z,1.70
2023-03-11T13:43:13.255Z,2.40
2023-03-11T13:45:40.332Z,2.10
2023-03-11T13:48:30.921Z,1.55
2023-03-11T13:51:15.473Z,2.00
2023-03-11T13:53:51.684Z,2.45
2023-03-11T13:56:24.583Z,2.05
2023-03-11T13:58:51.764Z,2.00
2023-03-11T14:01:19.031Z,2.05
2023-03-11T14:03:47.997Z,2.03
2023-03-11T14:06:20.004Z,2.00
2023-03-11T14:08:58.052Z,1.90
2023-03-11T14:11:29.554Z,1.90
2023-03-11T14:13:56.600Z,4.63
2023-03-11T14:16:36.067Z,2.47
2023-03-11T14:19:09.305Z,1.92
2023-03-11T14:21:36.513Z,2.10
2023-03-11T14:24:03.919Z,2.42
2023-03-11T14:26:34.943Z,1.88
2023-03-11T14:29:10.735Z,2.40
2023-03-11T14:31:44.081Z,1.98
2023-03-11T14:34:11.028Z,2.20
2023-03-11T14:36:57.369Z,1.80
2023-03-11T14:39:34.518Z,2.10
2023-03-11T14:42:18.664Z,1.73
2023-03-11T14:45:05.268Z,1.73
2023-03-11T14:47:40.041Z,1.80
2023-03-11T14:50:13.758Z,1.48
2023-03-11T14:53:12.404Z,2.00
2023-03-11T14:56:01.230Z,1.75
2023-03-11T14:58:40.315Z,2.08
2023-03-11T15:01:07.467Z,2.35
2023-03-11T15:03:38.031Z,1.90
2023-03-11T15:06:07.988Z,1.98
2023-03-11T15:08:44.146Z,3.05
2023-03-11T15:11:11.020Z,2.40
2023-03-11T15:13:39.739Z,1.90
2023-03-11T15:16:22.507Z,1.98
2023-03-11T15:18:49.492Z,2.60
2023-03-11T15:21:18.949Z,2.47
2023-03-11T15:24:07.017Z,2.03
2023-03-11T15:26:35.986Z,1.83
2023-03-11T15:29:23.352Z,2.85
2023-03-11T15:31:50.433Z,2.25
2023-03-11T15:34:17.221Z,2.30
2023-03-11T15:36:50.101Z,1.52
2023-03-11T15:39:22.402Z,2.13
2023-03-11T15:42:03.670Z,4.30
2023-03-11T15:44:32.665Z,2.20
2023-03-11T15:47:00.786Z,2.00
2023-03-11T15:49:29.390Z,2.70
2023-03-11T15:52:00.622Z,3.45
2023-03-11T15:54:28.159Z,2.95
2023-03-11T15:56:58.004Z,1.80
2023-03-11T15:59:25.516Z,2.28
2023-03-11T16:01:52.356Z,3.50
2023-03-11T16:04:20.930Z,1.88
2023-03-11T16:06:56.655Z,2.20
2023-03-11T16:09:31.707Z,4.65
2023-03-11T16:11:58.581Z,3.10
2023-03-11T16:14:25.830Z,2.60
2023-03-11T16:16:52.826Z,2.10
2023-03-11T16:19:19.770Z,2.83
2023-03-11T16:21:50.200Z,3.13
2023-03-11T16:24:22.289Z,2.47
2023-03-11T16:26:52.087Z,2.65
2023-03-11T16:29:20.248Z,2.45
2023-03-11T16:31:48.927Z,2.08
2023-03-11T16:34:15.819Z,3.10
2023-03-11T16:36:42.790Z,1.92
2023-03-11T16:39:09.731Z,2.13
2023-03-11T16:41:42.628Z,2.55
2023-03-11T16:44:11.752Z,2.55
2023-03-11T16:46:38.985Z,2.50
2023-03-11T16:49:06.088Z,2.20
2023-03-11T16:51:33.343Z,2.60
2023-03-11T16:54:00.400Z,2.67
2023-03-11T16:56:27.665Z,2.17
2023-03-11T16:58:54.758Z,2.85
2023-03-11T17:01:22.231Z,2.10
2023-03-11T17:03:52.964Z,2.22
2023-03-11T17:06:21.101Z,4.03
2023-03-11T17:08:49.615Z,9.20
2023-03-11T17:11:18.906Z,7.28
2023-03-11T17:13:46.201Z,3.70
2023-03-11T17:16:14.542Z,3.22
2023-03-11T17:18:41.418Z,2.92
2023-03-11T17:21:14.050Z,2.40
2023-03-11T17:23:41.533Z,2.80
2023-03-11T17:26:14.767Z,2.60
2023-03-11T17:28:42.528Z,3.30
2023-03-11T17:31:14.827Z,2.45
2023-03-11T17:33:42.395Z,3.42
2023-03-11T17:36:12.711Z,2.78
2023-03-11T17:38:39.671Z,2.95
2023-03-11T17:41:11.315Z,4.20
2023-03-11T17:43:38.722Z,3.80
2023-03-11T17:46:11.437Z,2.42
2023-03-11T17:48:38.607Z,4.13
2023-03-11T17:51:10.877Z,4.28
2023-03-11T17:53:39.956Z,8.48
2023-03-11T17:56:07.742Z,6.88
2023-03-11T17:58:35.804Z,6.43
2023-03-11T18:01:08.770Z,6.53
2023-03-11T18:03:35.780Z,4.85
2023-03-11T18:06:04.861Z,4.95
2023-03-11T18:08:33.067Z,4.65
2023-03-11T18:11:03.108Z,7.88
2023-03-11T18:13:30.570Z,14.15
2023-03-11T18:16:04.573Z,8.48
2023-03-11T18:18:32.982Z,3.15
2023-03-11T18:21:08.872Z,2.90
2023-03-11T18:23:36.129Z,2.67
2023-03-11T18:26:05.222Z,2.90
2023-03-11T18:28:32.505Z,3.00
2023-03-11T18:31:17.490Z,3.35
2023-03-11T18:33:55.110Z,4.40
2023-03-11T18:36:24.571Z,2.97
2023-03-11T18:38:56.863Z,3.92
2023-03-11T18:41:25.003Z,3.72
2023-03-11T18:43:57.626Z,4.28
2023-03-11T18:46:26.587Z,3.40
2023-03-11T18:48:54.979Z,3.33
2023-03-11T18:51:21.971Z,3.47
2023-03-11T18:53:48.788Z,3.20
2023-03-11T18:56:16.940Z,2.75
2023-03-11T18:58:44.026Z,2.72
2023-03-11T19:01:21.171Z,2.60
2023-03-11T19:03:53.698Z,2.20
2023-03-11T19:06:21.691Z,3.90
2023-03-11T19:08:49.102Z,3.72
2023-03-11T19:11:19.323Z,2.72
2023-03-11T19:13:47.865Z,3.08
2023-03-11T19:16:17.544Z,2.55
2023-03-11T19:18:45.027Z,2.70
2023-03-11T19:21:13.385Z,2.97
2023-03-11T19:23:40.419Z,3.20
2023-03-11T19:26:07.913Z,4.07
2023-03-11T19:28:35.642Z,3.50
2023-03-11T19:31:03.402Z,3.45
2023-03-11T19:33:30.595Z,3.80
2023-03-11T19:36:03.153Z,4.00
2023-03-11T19:38:30.367Z,4.15
2023-03-11T19:41:01.329Z,4.10
2023-03-11T19:43:28.764Z,3.88
2023-03-11T19:45:56.422Z,4.38
2023-03-11T19:48:24.041Z,3.85
2023-03-11T19:50:51.870Z,4.18
2023-03-11T19:53:19.957Z,4.90
2023-03-11T19:55:50.127Z,4.60
2023-03-11T19:58:17.286Z,4.80
2023-03-11T20:00:45.052Z,5.38
2023-03-11T20:03:13.334Z,5.10
2023-03-11T20:05:42.402Z,5.57
2023-03-11T20:08:11.399Z,6.53
2023-03-11T20:10:42.934Z,6.90
2023-03-11T20:13:10.124Z,7.13
2023-03-11T20:15:37.298Z,8.65
2023-03-11T20:18:06.202Z,9.55
2023-03-11T20:20:34.100Z,6.88
2023-03-11T20:23:01.997Z,7.13
2023-03-11T20:25:32.227Z,7.72
2023-03-11T20:28:00.203Z,7.70
2023-03-11T20:30:28.876Z,7.93
2023-03-11T20:32:55.964Z,7.85
2023-03-11T20:35:23.288Z,8.18
2023-03-11T20:37:50.390Z,9.85
2023-03-11T20:40:18.688Z,8.93
2023-03-11T20:42:47.216Z,8.07
2023-03-11T20:45:16.300Z,8.55
2023-03-11T20:47:44.346Z,8.10
2023-03-11T20:50:12.963Z,8.52
2023-03-11T20:52:40.386Z,8.40
2023-03-11T20:55:10.059Z,7.32
2023-03-11T20:57:38.430Z,7.75
2023-03-11T21:00:11.856Z,7.45
2023-03-11T21:02:40.597Z,7.40
2023-03-11T21:05:09.514Z,7.15
2023-03-11T21:07:36.842Z,7.63
2023-03-11T21:10:05.583Z,7.53
2023-03-11T21:12:32.605Z,7.68
2023-03-11T21:14:59.649Z,7.47
2023-03-11T21:17:26.701Z,7.78
2023-03-11T21:19:53.548Z,5.95
2023-03-11T21:22:20.500Z,6.22
2023-03-11T21:24:52.128Z,6.13
2023-03-11T21:27:25.782Z,6.38
2023-03-11T21:29:53.993Z,6.35
2023-03-11T21:32:21.753Z,6.65
2023-03-11T21:34:49.116Z,6.18
2023-03-11T21:37:16.534Z,5.57
2023-03-11T21:39:43.506Z,5.38
2023-03-11T21:42:10.412Z,5.90
2023-03-11T21:44:37.508Z,5.97
2023-03-11T21:47:04.582Z,5.70
2023-03-11T21:49:31.708Z,5.13
2023-03-11T21:52:01.000Z,5.68
2023-03-11T21:54:29.283Z,6.25
2023-03-11T21:56:56.248Z,4.82
2023-03-11T21:59:25.497Z,5.38
2023-03-11T22:01:52.997Z,5.45
2023-03-11T22:04:20.015Z,5.30
2023-03-11T22:06:47.034Z,5.95
2023-03-11T22:09:14.028Z,5.07
2023-03-11T22:11:41.014Z,5.10
2023-03-11T22:14:08.089Z,5.15
2023-03-11T22:16:35.337Z,5.03
2023-03-11T22:19:04.298Z,4.90
2023-03-11T22:21:31.297Z,5.97
2023-03-11T22:23:58.306Z,5.35
2023-03-11T22:26:25.218Z,6.13
2023-03-11T22:28:52.124Z,7.78
2023-03-11T22:31:19.133Z,5.75
2023-03-11T22:33:46.704Z,6.05
2023-03-11T22:36:13.746Z,5.72
2023-03-11T22:38:44.136Z,6.82
2023-03-11T22:41:12.289Z,5.50
2023-03-11T22:43:39.872Z,6.32
2023-03-11T22:46:07.546Z,5.95
2023-03-11T22:48:34.934Z,6.47
2023-03-11T22:51:02.205Z,6.15
2023-03-11T22:53:29.551Z,6.32
2023-03-11T22:55:56.536Z,5.70
2023-03-11T22:58:23.414Z,6.13
2023-03-11T23:00:50.256Z,6.00
2023-03-11T23:03:17.301Z,6.13
2023-03-11T23:05:45.928Z,6.80
2023-03-11T23:08:15.471Z,5.95
2023-03-11T23:10:44.574Z,5.47
2023-03-11T23:13:12.585Z,5.28
2023-03-11T23:15:47.290Z,6.30
2023-03-11T23:18:15.672Z,5.60
2023-03-11T23:20:43.474Z,5.93
2023-03-11T23:23:11.403Z,5.22
2023-03-11T23:25:39.652Z,5.63
2023-03-11T23:28:07.422Z,5.22
2023-03-11T23:30:34.503Z,5.63
2023-03-11T23:33:02.988Z,4.93
2023-03-11T23:35:30.938Z,5.18
2023-03-11T23:37:58.519Z,4.88
2023-03-11T23:40:25.559Z,4.95
2023-03-11T23:42:52.718Z,5.53
2023-03-11T23:45:19.687Z,5.32
2023-03-11T23:47:46.690Z,4.93
2023-03-11T23:50:13.614Z,5.18
2023-03-11T23:52:40.554Z,5.20
2023-03-11T23:55:08.532Z,5.10
2023-03-11T23:57:36.494Z,4.90
